createdAt,value
2019-03-23T00:00:15.879Z,91.84
2019-03-23T00:02:45.113Z,91.79
2019-03-23T00:05:14.869Z,91.87
2019-03-23T00:07:44.106Z,91.73
2019-03-23T00:10:13.379Z,91.63
2019-03-23T00:12:42.896Z,91.95
2019-03-23T00:15:12.841Z,91.89
2019-03-23T00:17:42.040Z,91.95
2019-03-23T00:20:11.245Z,92.25
2019-03-23T00:22:40.468Z,92.43
2019-03-23T00:25:09.847Z,92.35
2019-03-23T00:27:39.074Z,92.13
2019-03-23T00:30:09.511Z,92.41
2019-03-23T00:32:38.758Z,92.24
2019-03-23T00:35:08.088Z,92.06
2019-03-23T00:37:37.398Z,92.00
2019-03-23T00:40:07.325Z,91.89
2019-03-23T00:42:36.826Z,91.86
2019-03-23T00:45:06.798Z,91.93
2019-03-23T00:47:36.015Z,91.91
2019-03-23T00:50:06.615Z,91.93
2019-03-23T00:52:35.824Z,92.19
2019-03-23T00:55:05.949Z,92.33
2019-03-23T00:57:35.156Z,92.47
2019-03-23T01:00:05.231Z,92.64
2019-03-23T01:02:34.456Z,92.94
2019-03-23T01:05:03.739Z,92.92
2019-03-23T01:07:32.977Z,92.94
2019-03-23T01:10:02.253Z,92.73
2019-03-23T01:12:31.480Z,92.60
2019-03-23T01:15:00.710Z,92.55
2019-03-23T01:17:29.911Z,92.62
2019-03-23T01:19:59.136Z,92.79
2019-03-23T01:22:28.348Z,92.78
2019-03-23T01:24:57.574Z,92.72
2019-03-23T01:27:26.795Z,93.06
2019-03-23T01:29:56.050Z,93.38
2019-03-23T01:32:25.263Z,93.24
2019-03-23T01:34:54.472Z,93.16
2019-03-23T01:37:23.981Z,93.02
2019-03-23T01:39:53.197Z,92.90
2019-03-23T01:42:22.435Z,92.79
2019-03-23T01:44:51.636Z,92.86
2019-03-23T01:47:20.877Z,92.96
2019-03-23T01:49:50.074Z,93.09
2019-03-23T01:52:19.281Z,92.99
2019-03-23T01:54:48.527Z,92.98
2019-03-23T01:57:17.730Z,93.01
2019-03-23T01:59:46.940Z,92.92
2019-03-23T02:02:16.248Z,93.15
2019-03-23T02:04:45.474Z,93.11
2019-03-23T02:07:15.017Z,93.17
2019-03-23T02:09:44.244Z,93.15
2019-03-23T02:12:14.053Z,93.24
2019-03-23T02:14:43.245Z,93.19
2019-03-23T02:17:12.779Z,93.09
2019-03-23T02:19:42.406Z,93.22
2019-03-23T02:22:11.713Z,93.50
2019-03-23T02:24:40.951Z,93.49
2019-03-23T02:27:10.156Z,93.62
2019-03-23T02:29:39.351Z,93.45
2019-03-23T02:32:08.591Z,93.63
2019-03-23T02:34:37.786Z,93.30
2019-03-23T02:37:07.031Z,93.57
2019-03-23T02:39:36.234Z,93.55
2019-03-23T02:42:05.543Z,93.46
2019-03-23T02:44:34.770Z,93.63
2019-03-23T02:47:04.001Z,93.86
2019-03-23T02:49:33.549Z,93.79
2019-03-23T02:52:02.776Z,93.78
2019-03-23T02:54:31.969Z,93.77
2019-03-23T02:57:01.284Z,93.63
2019-03-23T02:59:30.478Z,93.65
2019-03-23T03:01:59.674Z,93.60
2019-03-23T03:04:28.905Z,93.66
2019-03-23T03:06:58.122Z,93.67
2019-03-23T03:09:27.343Z,93.61
2019-03-23T03:11:56.566Z,93.63
2019-03-23T03:14:26.068Z,93.63
2019-03-23T03:16:55.278Z,93.75
2019-03-23T03:19:24.502Z,93.83
2019-03-23T03:21:53.700Z,93.93
2019-03-23T03:24:22.898Z,94.15
2019-03-23T03:26:52.158Z,94.09
2019-03-23T03:29:21.354Z,93.88
2019-03-23T03:31:50.572Z,93.61
2019-03-23T03:34:19.811Z,93.53
2019-03-23T03:36:49.088Z,93.44
2019-03-23T03:39:18.555Z,93.56
2019-03-23T03:41:48.074Z,93.51
2019-03-23T03:44:17.316Z,93.56
2019-03-23T03:46:46.508Z,93.53
2019-03-23T03:49:15.704Z,93.67
2019-03-23T03:51:44.934Z,93.64
2019-03-23T03:54:14.132Z,93.71
2019-03-23T03:56:43.337Z,93.89
2019-03-23T03:59:12.558Z,93.67
2019-03-23T04:01:41.825Z,93.51
2019-03-23T04:04:11.054Z,93.26
2019-03-23T04:06:40.273Z,93.29
2019-03-23T04:09:09.484Z,93.34
2019-03-23T04:11:38.705Z,93.62
2019-03-23T04:14:07.905Z,93.56
2019-03-23T04:16:37.116Z,93.93
2019-03-23T04:19:06.332Z,94.24
2019-03-23T04:21:35.559Z,94.33
2019-03-23T04:24:04.804Z,94.12
2019-03-23T04:26:34.000Z,93.90
2019-03-23T04:29:03.232Z,93.81
2019-03-23T04:31:32.432Z,93.64
2019-03-23T04:34:01.654Z,93.84
2019-03-23T04:36:30.875Z,93.83
2019-03-23T04:39:00.080Z,93.81
2019-03-23T04:41:29.386Z,93.85
2019-03-23T04:43:58.586Z,94.25
2019-03-23T04:46:27.810Z,94.15
2019-03-23T04:48:57.747Z,94.10
2019-03-23T04:51:27.297Z,94.17
2019-03-23T04:53:56.513Z,94.18
2019-03-23T04:56:25.733Z,94.33
2019-03-23T04:58:54.969Z,94.24
2019-03-23T05:01:24.165Z,94.26
2019-03-23T05:03:53.365Z,94.32
2019-03-23T05:06:22.606Z,94.29
2019-03-23T05:08:51.817Z,94.23
2019-03-23T05:11:21.018Z,94.10
2019-03-23T05:13:50.248Z,94.03
2019-03-23T05:16:19.757Z,94.02
2019-03-23T05:18:49.032Z,94.00
2019-03-23T05:21:18.344Z,93.99
2019-03-23T05:23:47.612Z,93.90
2019-03-23T05:26:16.866Z,94.19
2019-03-23T05:28:46.302Z,94.22
2019-03-23T05:31:15.499Z,93.98
2019-03-23T05:33:44.850Z,93.62
2019-03-23T05:36:15.343Z,93.50
2019-03-23T05:38:44.990Z,93.76
2019-03-23T05:41:14.333Z,93.90
2019-03-23T05:43:43.550Z,93.67
2019-03-23T05:46:12.731Z,93.58
2019-03-23T05:48:42.289Z,93.43
2019-03-23T05:51:11.493Z,93.28
2019-03-23T05:53:40.687Z,93.29
2019-03-23T05:56:09.914Z,93.46
2019-03-23T05:58:39.462Z,93.60
2019-03-23T06:01:08.662Z,93.74
2019-03-23T06:03:37.894Z,93.87
2019-03-23T06:06:07.174Z,93.82
2019-03-23T06:08:36.398Z,93.73
2019-03-23T06:11:05.656Z,93.62
2019-03-23T06:13:34.856Z,93.52
2019-03-23T06:16:04.052Z,93.66
2019-03-23T06:18:33.277Z,93.62
2019-03-23T06:21:02.474Z,93.60
2019-03-23T06:23:31.671Z,93.12
2019-03-23T06:26:00.895Z,93.19
2019-03-23T06:28:30.105Z,92.91
2019-03-23T06:30:59.310Z,92.52
2019-03-23T06:33:28.541Z,92.50
2019-03-23T06:35:58.041Z,92.51
2019-03-23T06:38:27.241Z,92.70
2019-03-23T06:40:56.526Z,92.76
2019-03-23T06:43:25.684Z,92.57
2019-03-23T06:45:54.880Z,92.65
2019-03-23T06:48:24.117Z,92.58
2019-03-23T06:50:53.324Z,92.48
2019-03-23T06:53:22.560Z,92.45
2019-03-23T06:55:51.767Z,92.76
2019-03-23T06:58:20.995Z,92.80
2019-03-23T07:00:50.350Z,92.31
2019-03-23T07:03:19.553Z,91.00
2019-03-23T07:05:48.777Z,89.41
2019-03-23T07:08:18.016Z,89.69
2019-03-23T07:10:47.244Z,90.41
2019-03-23T07:13:16.452Z,90.86
2019-03-23T07:15:45.683Z,90.23
2019-03-23T07:18:14.885Z,90.15
2019-03-23T07:20:44.091Z,91.43
2019-03-23T07:23:13.323Z,90.42
2019-03-23T07:25:42.550Z,89.99
2019-03-23T07:28:11.830Z,89.98
2019-03-23T07:30:41.038Z,90.50
2019-03-23T07:33:10.271Z,89.11
2019-03-23T07:35:39.494Z,88.76
2019-03-23T07:38:08.716Z,89.33
2019-03-23T07:40:38.224Z,90.32
2019-03-23T07:43:07.522Z,90.26
2019-03-23T07:45:36.732Z,90.28
2019-03-23T07:48:05.949Z,90.02
2019-03-23T07:50:35.194Z,89.81
2019-03-23T07:53:04.755Z,89.63
2019-03-23T07:55:33.961Z,88.99
2019-03-23T07:58:03.188Z,88.35
2019-03-23T08:00:32.401Z,87.97
2019-03-23T08:03:01.616Z,87.90
2019-03-23T08:05:30.854Z,87.76
2019-03-23T08:08:00.100Z,87.64
2019-03-23T08:10:33.493Z,86.90
2019-03-23T08:13:02.806Z,86.82
2019-03-23T08:15:32.123Z,86.52
2019-03-23T08:18:01.428Z,86.89
2019-03-23T08:20:30.640Z,86.62
2019-03-23T08:22:59.845Z,86.19
2019-03-23T08:25:29.080Z,86.31
2019-03-23T08:27:58.835Z,86.66
2019-03-23T08:30:28.076Z,86.21
2019-03-23T08:32:57.298Z,85.31
2019-03-23T08:35:26.895Z,85.11
2019-03-23T08:37:56.132Z,85.21
2019-03-23T08:40:25.343Z,85.73
2019-03-23T08:42:54.549Z,85.17
2019-03-23T08:45:23.782Z,84.61
2019-03-23T08:47:52.986Z,85.97
2019-03-23T08:50:22.189Z,86.16
2019-03-23T08:52:51.422Z,85.19
2019-03-23T08:55:22.025Z,84.37
2019-03-23T08:57:51.321Z,84.41
2019-03-23T09:00:20.548Z,84.66
2019-03-23T09:02:49.751Z,84.28
2019-03-23T09:05:18.961Z,83.39
2019-03-23T09:07:48.219Z,83.79
2019-03-23T09:10:17.451Z,83.74
2019-03-23T09:12:46.691Z,84.07
2019-03-23T09:15:15.995Z,83.63
2019-03-23T09:17:45.199Z,82.76
2019-03-23T09:20:14.518Z,82.83
2019-03-23T09:22:43.723Z,83.13
2019-03-23T09:25:12.922Z,83.24
2019-03-23T09:27:42.164Z,82.54
2019-03-23T09:30:11.714Z,81.68
2019-03-23T09:32:40.923Z,80.94
2019-03-23T09:35:10.248Z,81.82
2019-03-23T09:37:39.449Z,82.24
2019-03-23T09:40:11.150Z,81.78
2019-03-23T09:42:40.363Z,81.94
2019-03-23T09:45:09.932Z,81.12
2019-03-23T09:47:39.148Z,81.44
2019-03-23T09:50:08.967Z,81.51
2019-03-23T09:52:38.267Z,81.12
2019-03-23T09:55:07.931Z,81.03
2019-03-23T09:57:37.238Z,81.18
2019-03-23T10:00:08.128Z,81.93
2019-03-23T10:02:37.467Z,80.61
2019-03-23T10:05:07.477Z,81.30
2019-03-23T10:07:36.680Z,81.04
2019-03-23T10:10:06.496Z,81.83
2019-03-23T10:12:35.747Z,82.31
2019-03-23T10:15:05.804Z,81.74
2019-03-23T10:17:35.033Z,82.38
2019-03-23T10:20:04.833Z,81.63
2019-03-23T10:22:34.036Z,79.67
2019-03-23T10:25:03.268Z,78.53
2019-03-23T10:27:32.474Z,80.57
2019-03-23T10:30:01.698Z,80.90
2019-03-23T10:32:30.916Z,79.97
2019-03-23T10:35:00.441Z,80.38
2019-03-23T10:37:29.723Z,79.70
2019-03-23T10:39:58.953Z,79.82
2019-03-23T10:42:28.167Z,79.11
2019-03-23T10:44:57.372Z,79.64
2019-03-23T10:47:26.681Z,78.87
2019-03-23T10:49:55.894Z,77.62
2019-03-23T10:52:25.103Z,76.71
2019-03-23T10:54:54.344Z,76.09
2019-03-23T10:57:23.538Z,73.75
2019-03-23T10:59:52.771Z,71.92
2019-03-23T11:02:22.057Z,71.88
2019-03-23T11:04:51.265Z,72.00
2019-03-23T11:07:20.926Z,70.84
2019-03-23T11:09:50.134Z,68.61
2019-03-23T11:12:19.358Z,68.88
2019-03-23T11:14:48.599Z,70.29
2019-03-23T11:17:17.807Z,69.75
2019-03-23T11:19:47.047Z,70.62
2019-03-23T11:22:18.642Z,71.31
2019-03-23T11:24:47.849Z,71.56
2019-03-23T11:27:17.089Z,69.91
2019-03-23T11:29:46.308Z,69.82
2019-03-23T11:32:15.529Z,70.84
2019-03-23T11:34:44.766Z,71.15
2019-03-23T11:37:14.001Z,71.23
2019-03-23T11:39:43.184Z,70.92
2019-03-23T11:42:12.415Z,69.20
2019-03-23T11:44:41.949Z,66.94
2019-03-23T11:47:11.157Z,64.87
2019-03-23T11:49:40.688Z,67.07
2019-03-23T11:52:09.886Z,64.34
2019-03-23T11:54:39.123Z,63.06
2019-03-23T11:57:08.672Z,61.35
2019-03-23T11:59:37.889Z,61.41
2019-03-23T12:02:07.131Z,61.90
2019-03-23T12:04:36.349Z,63.57
2019-03-23T12:07:05.550Z,61.46
2019-03-23T12:09:34.793Z,60.46
2019-03-23T12:12:04.522Z,61.20
2019-03-23T12:14:33.756Z,62.91
2019-03-23T12:17:03.992Z,64.26
2019-03-23T12:19:33.281Z,61.94
2019-03-23T12:22:02.708Z,63.14
2019-03-23T12:24:32.227Z,61.07
2019-03-23T12:27:01.798Z,58.94
2019-03-23T12:29:31.011Z,59.45
2019-03-23T12:32:00.511Z,60.35
2019-03-23T12:34:29.754Z,62.00
2019-03-23T12:36:58.964Z,60.62
2019-03-23T12:39:28.610Z,58.81
2019-03-23T12:41:58.199Z,57.97
2019-03-23T12:44:27.767Z,56.98
2019-03-23T12:46:56.977Z,55.34
2019-03-23T12:49:26.223Z,56.09
2019-03-23T12:51:55.542Z,54.68
2019-03-23T12:54:24.772Z,57.13
2019-03-23T12:56:54.003Z,58.30
2019-03-23T12:59:23.215Z,57.96
2019-03-23T13:01:52.447Z,57.61
2019-03-23T13:04:22.019Z,58.42
2019-03-23T13:06:51.224Z,58.22
2019-03-23T13:09:20.432Z,57.99
2019-03-23T13:11:49.656Z,58.22
2019-03-23T13:14:18.890Z,57.75
2019-03-23T13:16:48.123Z,57.81
2019-03-23T13:19:19.494Z,56.01
2019-03-23T13:21:48.737Z,54.93
2019-03-23T13:24:17.932Z,52.74
2019-03-23T13:26:47.139Z,52.75
2019-03-23T13:29:16.371Z,52.57
2019-03-23T13:31:45.578Z,52.74
2019-03-23T13:34:14.785Z,51.28
2019-03-23T13:36:44.028Z,50.60
2019-03-23T13:39:13.251Z,52.36
2019-03-23T13:41:49.078Z,50.79
2019-03-23T13:44:18.351Z,47.27
2019-03-23T13:46:47.594Z,45.16
2019-03-23T13:49:16.800Z,41.80
2019-03-23T13:51:46.043Z,36.91
2019-03-23T13:54:15.267Z,33.98
2019-03-23T13:56:44.481Z,31.32
2019-03-23T13:59:13.720Z,34.13
2019-03-23T14:01:42.932Z,37.20
2019-03-23T14:04:12.463Z,39.60
2019-03-23T14:06:41.699Z,40.58
2019-03-23T14:09:10.898Z,43.61
2019-03-23T14:11:40.119Z,45.09
2019-03-23T14:14:09.374Z,43.40
2019-03-23T14:16:38.584Z,44.49
2019-03-23T14:19:07.776Z,44.78
2019-03-23T14:21:37.019Z,47.62
2019-03-23T14:24:06.314Z,53.42
2019-03-23T14:26:35.517Z,55.27
2019-03-23T14:29:04.755Z,57.08
2019-03-23T14:31:33.987Z,56.35
2019-03-23T14:34:04.039Z,52.94
2019-03-23T14:36:33.282Z,49.71
2019-03-23T14:39:02.499Z,48.37
2019-03-23T14:41:31.702Z,49.53
2019-03-23T14:44:00.927Z,52.31
2019-03-23T14:46:30.131Z,52.73
2019-03-23T14:49:01.593Z,53.31
2019-03-23T14:51:30.303Z,55.45
2019-03-23T14:53:59.511Z,57.45
2019-03-23T14:56:31.776Z,57.83
2019-03-23T14:58:59.666Z,57.66
2019-03-23T15:01:28.899Z,58.29
2019-03-23T15:03:58.111Z,56.79
2019-03-23T15:06:27.445Z,58.40
2019-03-23T15:08:56.678Z,60.04
2019-03-23T15:11:25.885Z,60.04
2019-03-23T15:13:55.123Z,60.03
2019-03-23T15:16:24.330Z,60.68
2019-03-23T15:18:53.815Z,61.59
2019-03-23T15:21:23.048Z,62.70
2019-03-23T15:23:52.254Z,63.49
2019-03-23T15:26:21.463Z,62.69
2019-03-23T15:28:51.314Z,62.15
2019-03-23T15:31:20.531Z,62.20
2019-03-23T15:33:49.731Z,61.96
2019-03-23T15:36:19.058Z,63.52
2019-03-23T15:38:48.607Z,63.23
2019-03-23T15:41:17.827Z,64.02
2019-03-23T15:43:47.058Z,64.27
2019-03-23T15:46:16.260Z,64.39
2019-03-23T15:48:45.823Z,64.54
2019-03-23T15:51:15.093Z,64.82
2019-03-23T15:53:44.628Z,65.04
2019-03-23T15:56:13.863Z,65.67
2019-03-23T15:58:43.084Z,65.84
2019-03-23T16:01:12.289Z,65.99
2019-03-23T16:03:41.525Z,65.96
2019-03-23T16:06:10.750Z,66.60
2019-03-23T16:08:39.951Z,66.93
2019-03-23T16:11:09.156Z,67.02
2019-03-23T16:13:38.386Z,67.10
2019-03-23T16:16:07.628Z,67.28
2019-03-23T16:18:37.122Z,67.27
2019-03-23T16:21:06.334Z,68.11
2019-03-23T16:23:35.538Z,68.27
2019-03-23T16:26:04.840Z,67.84
2019-03-23T16:28:34.045Z,68.58
2019-03-23T16:31:03.255Z,67.73
2019-03-23T16:33:32.483Z,68.53
2019-03-23T16:36:03.537Z,68.97
2019-03-23T16:38:32.678Z,68.87
2019-03-23T16:41:01.879Z,69.32
2019-03-23T16:43:31.113Z,68.92
2019-03-23T16:46:00.327Z,68.93
2019-03-23T16:48:29.535Z,69.07
2019-03-23T16:50:58.752Z,69.13
2019-03-23T16:53:27.955Z,69.25
2019-03-23T16:55:57.191Z,69.58
2019-03-23T16:58:26.406Z,70.22
2019-03-23T17:00:55.608Z,69.68
2019-03-23T17:03:24.825Z,70.11
2019-03-23T17:05:54.325Z,70.69
2019-03-23T17:08:23.561Z,70.81
2019-03-23T17:10:53.171Z,70.81
2019-03-23T17:13:22.388Z,70.83
2019-03-23T17:15:51.619Z,70.79
2019-03-23T17:18:20.882Z,70.77
2019-03-23T17:20:50.088Z,70.50
2019-03-23T17:23:19.302Z,70.98
2019-03-23T17:25:48.540Z,71.54
2019-03-23T17:28:17.751Z,72.49
2019-03-23T17:30:46.958Z,72.52
2019-03-23T17:33:16.485Z,72.56
2019-03-23T17:35:45.697Z,73.41
2019-03-23T17:38:15.245Z,74.69
2019-03-23T17:40:44.537Z,76.16
2019-03-23T17:43:13.742Z,76.15
2019-03-23T17:45:43.622Z,77.00
2019-03-23T17:48:12.823Z,77.88
2019-03-23T17:50:42.032Z,78.27
2019-03-23T17:53:11.259Z,78.83
2019-03-23T17:55:40.572Z,78.60
2019-03-23T17:58:09.785Z,78.93
2019-03-23T18:00:38.998Z,79.08
2019-03-23T18:03:08.232Z,79.29
2019-03-23T18:05:37.442Z,78.77
2019-03-23T18:08:06.874Z,78.48
2019-03-23T18:10:36.109Z,78.54
2019-03-23T18:13:15.917Z,79.06
2019-03-23T18:15:36.686Z,79.10
2019-03-23T18:18:05.999Z,79.12
2019-03-23T18:20:35.281Z,79.30
2019-03-23T18:23:04.492Z,79.44
2019-03-23T18:25:33.741Z,79.52
2019-03-23T18:28:02.944Z,79.60
2019-03-23T18:30:38.324Z,79.41
2019-03-23T18:33:07.904Z,79.65
2019-03-23T18:35:37.288Z,79.87
2019-03-23T18:38:06.678Z,79.56
2019-03-23T18:40:36.387Z,79.68
2019-03-23T18:43:05.924Z,79.73
2019-03-23T18:45:35.902Z,79.56
2019-03-23T18:48:05.697Z,79.87
2019-03-23T18:50:34.904Z,81.44
2019-03-23T18:53:04.549Z,81.40
2019-03-23T18:55:33.767Z,81.39
2019-03-23T18:58:02.985Z,81.80
2019-03-23T19:00:43.003Z,81.93
2019-03-23T19:03:12.705Z,81.71
2019-03-23T19:05:42.200Z,81.86
2019-03-23T19:08:12.008Z,81.66
2019-03-23T19:10:41.375Z,81.38
2019-03-23T19:13:10.650Z,81.48
2019-03-23T19:15:39.883Z,81.67
2019-03-23T19:18:09.142Z,81.80
2019-03-23T19:20:38.419Z,81.72
2019-03-23T19:23:07.775Z,81.63
2019-03-23T19:25:37.066Z,81.59
2019-03-23T19:28:06.927Z,82.01
2019-03-23T19:30:36.357Z,81.66
2019-03-23T19:33:06.353Z,81.20
2019-03-23T19:35:35.679Z,81.69
2019-03-23T19:38:05.176Z,82.23
2019-03-23T19:40:34.394Z,82.85
2019-03-23T19:43:03.602Z,83.01
2019-03-23T19:45:32.809Z,83.15
2019-03-23T19:48:02.047Z,82.27
2019-03-23T19:50:31.250Z,82.54
2019-03-23T19:53:00.451Z,82.59
2019-03-23T19:55:29.986Z,81.41
2019-03-23T19:57:59.223Z,81.38
2019-03-23T20:00:28.421Z,81.59
2019-03-23T20:02:57.615Z,82.52
2019-03-23T20:05:26.834Z,82.22
2019-03-23T20:07:56.053Z,81.26
2019-03-23T20:10:25.280Z,79.91
2019-03-23T20:12:54.487Z,79.38
2019-03-23T20:15:23.774Z,77.51
2019-03-23T20:17:53.027Z,77.52
2019-03-23T20:20:22.401Z,76.31
2019-03-23T20:22:51.598Z,75.40
2019-03-23T20:25:20.807Z,74.45
2019-03-23T20:27:50.001Z,72.16
2019-03-23T20:30:19.621Z,73.39
2019-03-23T20:32:48.847Z,73.63
2019-03-23T20:35:18.057Z,73.92
2019-03-23T20:37:47.638Z,73.92
2019-03-23T20:40:16.925Z,73.69
2019-03-23T20:42:46.134Z,73.42
2019-03-23T20:45:26.394Z,73.85
2019-03-23T20:47:56.456Z,74.01
2019-03-23T20:50:25.604Z,73.36
2019-03-23T20:52:55.917Z,73.78
2019-03-23T20:55:27.082Z,73.90
2019-03-23T20:57:57.386Z,73.82
2019-03-23T21:00:26.679Z,73.62
2019-03-23T21:02:55.986Z,72.34
2019-03-23T21:05:33.069Z,72.75
2019-03-23T21:07:56.139Z,71.94
2019-03-23T21:10:25.421Z,70.53
2019-03-23T21:12:54.630Z,70.72
2019-03-23T21:15:23.861Z,71.47
2019-03-23T21:17:53.447Z,72.86
2019-03-23T21:20:22.685Z,72.26
2019-03-23T21:22:51.918Z,73.76
2019-03-23T21:25:21.198Z,73.18
2019-03-23T21:27:50.401Z,72.66
2019-03-23T21:30:21.477Z,73.11
2019-03-23T21:32:51.050Z,72.63
2019-03-23T21:35:20.587Z,72.42
2019-03-23T21:37:49.814Z,72.16
2019-03-23T21:40:19.062Z,72.61
2019-03-23T21:42:48.303Z,72.77
2019-03-23T21:45:17.581Z,73.30
2019-03-23T21:47:46.786Z,73.32
2019-03-23T21:50:16.095Z,72.96
2019-03-23T21:52:45.297Z,73.12
2019-03-23T21:55:15.536Z,73.41
2019-03-23T21:57:45.021Z,73.30
2019-03-23T22:00:19.688Z,73.62
2019-03-23T22:02:48.904Z,74.05
2019-03-23T22:05:18.105Z,74.17
2019-03-23T22:07:47.327Z,74.66
2019-03-23T22:10:16.641Z,74.09
2019-03-23T22:12:45.852Z,74.30
2019-03-23T22:15:15.633Z,74.62
2019-03-23T22:17:45.478Z,75.12
2019-03-23T22:20:15.079Z,74.90
2019-03-23T22:22:44.275Z,75.48
2019-03-23T22:25:13.574Z,75.26
2019-03-23T22:27:42.802Z,75.81
2019-03-23T22:30:13.729Z,75.45
2019-03-23T22:32:43.095Z,75.79
2019-03-23T22:35:12.486Z,76.24
2019-03-23T22:37:42.039Z,76.22
2019-03-23T22:40:12.400Z,76.40
2019-03-23T22:42:41.636Z,76.35
2019-03-23T22:45:11.403Z,76.45
2019-03-23T22:47:40.593Z,76.93
2019-03-23T22:50:10.803Z,76.75
2019-03-23T22:52:40.002Z,76.96
2019-03-23T22:55:09.660Z,76.99
2019-03-23T22:57:38.879Z,77.64
2019-03-23T23:00:08.776Z,78.14
2019-03-23T23:02:38.080Z,77.77
2019-03-23T23:05:08.405Z,77.82
2019-03-23T23:07:37.609Z,77.94
2019-03-23T23:10:07.220Z,77.62
2019-03-23T23:12:36.748Z,77.61
2019-03-23T23:15:06.689Z,77.73
2019-03-23T23:17:35.911Z,78.49
2019-03-23T23:20:05.855Z,78.55
2019-03-23T23:22:35.044Z,77.67
2019-03-23T23:25:05.152Z,78.20
2019-03-23T23:27:34.365Z,78.18
2019-03-23T23:30:03.998Z,78.66
2019-03-23T23:32:33.208Z,78.77
2019-03-23T23:35:02.396Z,78.97
2019-03-23T23:37:31.619Z,78.64
2019-03-23T23:40:00.816Z,78.45
2019-03-23T23:42:30.008Z,78.06
2019-03-23T23:44:59.261Z,77.58
2019-03-23T23:47:28.455Z,77.96
2019-03-23T23:49:57.649Z,78.05
2019-03-23T23:52:26.876Z,78.07
2019-03-23T23:54:56.073Z,78.34
2019-03-23T23:57:25.578Z,78.88
2019-03-23T23:59:54.799Z,79.43
